createdAt,value
2022-10-22T00:01:27.282Z,1.57
2022-10-22T00:03:30.274Z,1.73
2022-10-22T00:05:33.334Z,1.70
2022-10-22T00:07:36.547Z,1.93
2022-10-22T00:09:41.023Z,1.97
2022-10-22T00:11:44.655Z,1.93
2022-10-22T00:13:48.199Z,2.23
2022-10-22T00:15:51.345Z,1.60
2022-10-22T00:17:54.377Z,1.50
2022-10-22T00:19:58.344Z,1.50
2022-10-22T00:22:05.495Z,1.43
2022-10-22T00:24:08.880Z,1.40
2022-10-22T00:26:14.177Z,2.17
2022-10-22T00:28:17.204Z,1.73
2022-10-22T00:30:20.424Z,1.00
2022-10-22T00:32:23.727Z,1.00
2022-10-22T00:34:26.875Z,1.20
2022-10-22T00:36:29.951Z,0.80
2022-10-22T00:38:32.992Z,1.00
2022-10-22T00:40:36.171Z,1.00
2022-10-22T00:42:40.789Z,0.90
2022-10-22T00:45:06.976Z,0.70
2022-10-22T00:47:09.993Z,1.63
2022-10-22T00:49:13.082Z,1.00
2022-10-22T00:51:16.111Z,1.10
2022-10-22T00:53:21.598Z,1.47
2022-10-22T00:55:25.497Z,1.20
2022-10-22T00:57:28.985Z,1.43
2022-10-22T00:59:33.954Z,1.60
2022-10-22T01:01:36.958Z,1.40
2022-10-22T01:03:40.559Z,1.90
2022-10-22T01:05:45.688Z,1.53
2022-10-22T01:07:50.462Z,1.50
2022-10-22T01:10:01.733Z,1.63
2022-10-22T01:12:11.561Z,1.27
2022-10-22T01:14:18.103Z,1.63
2022-10-22T01:16:28.608Z,1.50
2022-10-22T01:18:37.723Z,1.77
2022-10-22T01:20:50.663Z,1.43
2022-10-22T01:23:01.048Z,1.70
2022-10-22T01:25:09.948Z,1.40
2022-10-22T01:27:30.451Z,1.67
2022-10-22T01:29:38.644Z,1.70
2022-10-22T01:31:54.380Z,1.50
2022-10-22T01:33:58.454Z,1.30
2022-10-22T01:36:01.853Z,1.50
2022-10-22T01:38:06.983Z,1.40
2022-10-22T01:40:11.586Z,1.13
2022-10-22T01:42:15.206Z,1.60
2022-10-22T01:44:26.744Z,1.47
2022-10-22T01:46:31.524Z,1.33
2022-10-22T01:48:40.506Z,1.13
2022-10-22T01:50:57.590Z,1.13
2022-10-22T01:53:21.334Z,1.07
2022-10-22T01:55:29.631Z,1.30
2022-10-22T01:57:38.364Z,1.37
2022-10-22T01:59:49.497Z,1.30
2022-10-22T02:01:57.576Z,1.27
2022-10-22T02:04:04.598Z,1.40
2022-10-22T02:06:10.932Z,1.40
2022-10-22T02:08:17.077Z,1.70
2022-10-22T02:10:20.853Z,1.33
2022-10-22T02:12:24.953Z,1.27
2022-10-22T02:14:30.515Z,1.30
2022-10-22T02:16:35.945Z,1.57
2022-10-22T02:18:42.536Z,1.50
2022-10-22T02:20:45.537Z,1.80
2022-10-22T02:22:48.722Z,1.30
2022-10-22T02:24:51.725Z,1.50
2022-10-22T02:27:00.360Z,1.67
2022-10-22T02:29:08.244Z,1.67
2022-10-22T02:31:15.455Z,2.60
2022-10-22T02:33:22.915Z,1.60
2022-10-22T02:35:27.971Z,1.63
2022-10-22T02:37:31.119Z,1.83
2022-10-22T02:39:35.192Z,1.70
2022-10-22T02:41:38.972Z,1.60
2022-10-22T02:43:43.444Z,1.70
2022-10-22T02:45:46.542Z,1.87
2022-10-22T02:47:49.493Z,1.80
2022-10-22T02:49:52.960Z,1.50
2022-10-22T02:51:57.397Z,1.77
2022-10-22T02:54:00.416Z,1.80
2022-10-22T02:56:03.429Z,1.80
2022-10-22T02:58:06.389Z,1.87
2022-10-22T03:00:10.688Z,1.93
2022-10-22T03:02:13.680Z,1.60
2022-10-22T03:04:17.090Z,1.40
2022-10-22T03:06:20.228Z,1.67
2022-10-22T03:08:24.624Z,2.00
2022-10-22T03:10:27.589Z,1.50
2022-10-22T03:12:30.615Z,1.73
2022-10-22T03:14:33.629Z,1.60
2022-10-22T03:16:36.631Z,2.17
2022-10-22T03:18:39.789Z,1.93
2022-10-22T03:20:42.742Z,1.97
2022-10-22T03:22:46.178Z,2.00
2022-10-22T03:24:53.075Z,2.07
2022-10-22T03:26:56.139Z,1.53
2022-10-22T03:29:00.806Z,1.60
2022-10-22T03:31:04.003Z,1.50
2022-10-22T03:33:07.014Z,1.73
2022-10-22T03:35:10.241Z,1.60
2022-10-22T03:37:13.714Z,1.40
2022-10-22T03:39:17.382Z,1.90
2022-10-22T03:41:21.876Z,1.50
2022-10-22T03:43:24.932Z,2.20
2022-10-22T03:45:28.084Z,1.50
2022-10-22T03:47:31.152Z,1.90
2022-10-22T03:49:34.177Z,1.70
2022-10-22T03:51:37.155Z,1.53
2022-10-22T03:53:40.379Z,1.60
2022-10-22T03:55:43.580Z,1.50
2022-10-22T03:57:47.972Z,1.50
2022-10-22T03:59:51.349Z,1.67
2022-10-22T04:01:54.546Z,1.50
2022-10-22T04:03:57.713Z,1.50
2022-10-22T04:06:03.244Z,1.10
2022-10-22T04:08:06.306Z,1.23
2022-10-22T04:10:10.001Z,1.00
2022-10-22T04:12:13.143Z,1.30
2022-10-22T04:14:17.547Z,1.20
2022-10-22T04:16:24.102Z,1.30
2022-10-22T04:18:29.489Z,1.23
2022-10-22T04:20:32.767Z,1.20
2022-10-22T04:22:36.562Z,1.20
2022-10-22T04:24:39.724Z,1.10
2022-10-22T04:26:42.708Z,1.00
2022-10-22T04:28:46.335Z,1.10
2022-10-22T04:30:50.730Z,1.17
2022-10-22T04:32:53.671Z,1.10
2022-10-22T04:34:56.644Z,1.00
2022-10-22T04:36:59.651Z,1.00
2022-10-22T04:39:03.363Z,1.17
2022-10-22T04:41:10.977Z,1.10
2022-10-22T04:43:14.018Z,1.80
2022-10-22T04:45:17.141Z,1.60
2022-10-22T04:47:21.525Z,2.00
2022-10-22T04:49:24.475Z,1.10
2022-10-22T04:51:28.527Z,1.20
2022-10-22T04:53:31.708Z,1.30
2022-10-22T04:55:34.711Z,1.10
2022-10-22T04:57:37.842Z,1.10
2022-10-22T04:59:41.162Z,0.90
2022-10-22T05:01:45.973Z,1.10
2022-10-22T05:03:51.192Z,0.97
2022-10-22T05:05:54.190Z,1.23
2022-10-22T05:07:57.277Z,1.73
2022-10-22T05:10:02.278Z,1.30
2022-10-22T05:12:06.424Z,1.30
2022-10-22T05:14:11.461Z,1.60
2022-10-22T05:16:15.018Z,1.33
2022-10-22T05:18:21.754Z,1.33
2022-10-22T05:20:27.089Z,1.30
2022-10-22T05:22:30.289Z,1.43
2022-10-22T05:24:34.591Z,1.30
2022-10-22T05:26:37.621Z,1.50
2022-10-22T05:28:41.300Z,1.77
2022-10-22T05:30:54.032Z,1.83
2022-10-22T05:32:57.206Z,1.63
2022-10-22T05:35:00.292Z,1.60
2022-10-22T05:37:04.678Z,1.50
2022-10-22T05:39:08.019Z,1.73
2022-10-22T05:41:12.360Z,1.40
2022-10-22T05:43:15.477Z,1.57
2022-10-22T05:45:18.858Z,1.50
2022-10-22T05:47:21.829Z,1.70
2022-10-22T05:49:24.876Z,2.03
2022-10-22T05:51:29.416Z,1.77
2022-10-22T05:53:34.385Z,2.00
2022-10-22T05:55:38.967Z,1.83
2022-10-22T05:57:41.966Z,2.17
2022-10-22T05:59:45.058Z,1.53
2022-10-22T06:01:48.113Z,1.80
2022-10-22T06:03:54.128Z,1.70
2022-10-22T06:05:57.223Z,2.10
2022-10-22T06:08:00.393Z,2.67
2022-10-22T06:10:05.316Z,2.00
2022-10-22T06:12:10.837Z,2.60
2022-10-22T06:14:14.186Z,3.03
2022-10-22T06:16:17.528Z,3.33
2022-10-22T06:18:20.502Z,6.83
2022-10-22T06:20:23.410Z,4.30
2022-10-22T06:22:26.515Z,2.83
2022-10-22T06:24:29.831Z,3.60
2022-10-22T06:26:34.503Z,3.30
2022-10-22T06:28:37.854Z,4.00
2022-10-22T06:30:43.043Z,4.67
2022-10-22T06:32:48.781Z,3.77
2022-10-22T06:34:52.035Z,4.30
2022-10-22T06:36:55.040Z,3.40
2022-10-22T06:38:58.274Z,4.57
2022-10-22T06:41:04.920Z,6.17
2022-10-22T06:43:09.263Z,2.50
2022-10-22T06:45:12.379Z,2.80
2022-10-22T06:47:15.520Z,7.70
2022-10-22T06:49:18.611Z,6.93
2022-10-22T06:51:22.014Z,3.63
2022-10-22T06:53:24.948Z,5.50
2022-10-22T06:55:27.976Z,3.93
2022-10-22T06:57:31.416Z,3.10
2022-10-22T06:59:35.723Z,1.63
2022-10-22T07:01:39.290Z,1.40
2022-10-22T07:03:43.198Z,10.03
2022-10-22T07:05:46.222Z,5.50
2022-10-22T07:07:49.761Z,2.97
2022-10-22T07:09:52.734Z,10.33
2022-10-22T07:11:55.849Z,7.00
2022-10-22T07:14:00.333Z,8.57
2022-10-22T07:16:04.933Z,6.23
2022-10-22T07:18:08.175Z,3.77
2022-10-22T07:20:12.458Z,2.90
2022-10-22T07:22:15.528Z,1.40
2022-10-22T07:24:18.627Z,1.63
2022-10-22T07:26:21.861Z,1.53
2022-10-22T07:28:25.303Z,1.17
2022-10-22T07:30:28.371Z,1.43
2022-10-22T07:32:32.749Z,1.10
2022-10-22T07:34:36.880Z,1.70
2022-10-22T07:36:41.537Z,3.70
2022-10-22T07:38:45.040Z,4.10
2022-10-22T07:40:47.962Z,4.67
2022-10-22T07:42:50.979Z,4.90
2022-10-22T07:44:53.963Z,4.40
2022-10-22T07:46:56.985Z,3.30
2022-10-22T07:49:01.461Z,4.00
2022-10-22T07:51:05.683Z,3.33
2022-10-22T07:53:08.637Z,3.50
2022-10-22T07:55:12.972Z,2.93
2022-10-22T07:57:15.969Z,3.10
2022-10-22T07:59:19.045Z,3.27
2022-10-22T08:01:22.142Z,3.23
2022-10-22T08:03:25.450Z,3.43
2022-10-22T08:05:29.870Z,3.33
2022-10-22T08:07:33.081Z,3.40
2022-10-22T08:09:36.173Z,7.50
2022-10-22T08:11:39.220Z,5.83
2022-10-22T08:13:45.329Z,6.80
2022-10-22T08:15:50.520Z,4.10
2022-10-22T08:17:55.638Z,3.73
2022-10-22T08:19:58.710Z,3.53
2022-10-22T08:22:03.595Z,2.97
2022-10-22T08:26:16.513Z,3.73
2022-10-22T08:28:21.320Z,2.63
2022-10-22T08:30:27.698Z,3.27
2022-10-22T08:32:30.861Z,2.37
2022-10-22T08:34:34.001Z,1.50
2022-10-22T08:36:37.020Z,1.40
2022-10-22T08:38:41.442Z,1.83
2022-10-22T08:40:45.989Z,1.80
2022-10-22T08:43:07.976Z,1.60
2022-10-22T08:45:14.754Z,2.50
2022-10-22T08:47:33.741Z,3.37
2022-10-22T08:49:41.335Z,2.60
2022-10-22T08:51:45.667Z,1.87
2022-10-22T08:54:08.140Z,1.60
2022-10-22T08:56:11.504Z,1.90
2022-10-22T08:58:20.373Z,2.63
2022-10-22T09:00:25.854Z,1.63
2022-10-22T09:02:36.367Z,1.80
2022-10-22T09:04:47.893Z,1.70
2022-10-22T09:06:53.554Z,1.57
2022-10-22T09:09:00.520Z,1.47
2022-10-22T09:11:07.010Z,1.47
2022-10-22T09:13:11.181Z,1.20
2022-10-22T09:15:15.244Z,0.90
2022-10-22T09:17:23.071Z,1.03
2022-10-22T09:19:32.754Z,1.30
2022-10-22T09:21:40.379Z,1.13
2022-10-22T09:23:55.153Z,1.13
2022-10-22T09:25:59.597Z,1.20
2022-10-22T09:28:02.905Z,0.83
2022-10-22T09:30:07.007Z,0.90
2022-10-22T09:32:10.038Z,0.93
2022-10-22T09:34:15.908Z,1.07
2022-10-22T09:36:21.998Z,1.20
2022-10-22T09:38:32.054Z,1.17
2022-10-22T09:40:44.354Z,1.03
2022-10-22T09:42:50.193Z,0.83
2022-10-22T09:44:56.316Z,1.27
2022-10-22T09:46:59.954Z,1.03
2022-10-22T09:49:07.583Z,0.83
2022-10-22T09:51:16.597Z,1.20
2022-10-22T09:53:23.533Z,1.00
2022-10-22T09:55:27.972Z,1.30
2022-10-22T09:57:32.485Z,1.27
2022-10-22T09:59:41.783Z,1.63
2022-10-22T10:01:45.759Z,14.83
2022-10-22T10:03:50.349Z,1.40
2022-10-22T10:05:55.608Z,1.40
2022-10-22T10:07:59.392Z,1.20
2022-10-22T10:10:07.962Z,1.00
2022-10-22T10:12:21.038Z,1.10
2022-10-22T10:14:31.063Z,0.80
2022-10-22T10:16:44.588Z,1.10
2022-10-22T10:19:04.184Z,1.20
2022-10-22T10:21:11.415Z,1.20
2022-10-22T10:23:21.732Z,0.97
2022-10-22T10:25:34.714Z,0.90
2022-10-22T10:27:41.294Z,0.97
2022-10-22T10:29:50.568Z,0.93
2022-10-22T10:32:13.889Z,0.90
2022-10-22T10:34:25.435Z,0.80
2022-10-22T10:36:33.277Z,0.90
2022-10-22T10:38:42.692Z,0.90
2022-10-22T10:40:50.018Z,1.10
2022-10-22T10:42:57.214Z,0.80
2022-10-22T10:45:08.014Z,1.00
2022-10-22T10:47:23.719Z,1.30
2022-10-22T10:49:28.201Z,0.90
2022-10-22T10:51:41.579Z,1.20
2022-10-22T10:53:56.227Z,1.00
2022-10-22T10:56:04.357Z,1.10
2022-10-22T10:58:19.715Z,0.90
2022-10-22T11:00:23.379Z,1.00
2022-10-22T11:05:28.632Z,1.00
2022-10-22T11:07:37.218Z,1.17
2022-10-22T11:09:42.794Z,1.10
2022-10-22T11:11:50.107Z,1.30
2022-10-22T11:13:56.289Z,1.10
2022-10-22T11:16:04.291Z,1.20
2022-10-22T11:18:15.717Z,1.00
2022-10-22T11:20:22.146Z,1.20
2022-10-22T11:22:28.146Z,0.90
2022-10-22T11:24:35.698Z,0.93
2022-10-22T11:26:47.054Z,0.90
2022-10-22T11:28:52.254Z,1.10
2022-10-22T11:31:01.081Z,1.00
2022-10-22T11:33:06.445Z,0.90
2022-10-22T11:35:14.791Z,0.90
2022-10-22T11:37:18.157Z,0.80
2022-10-22T11:39:32.928Z,1.00
2022-10-22T11:41:36.997Z,0.80
2022-10-22T11:43:58.623Z,1.10
2022-10-22T11:46:26.827Z,1.60
2022-10-22T11:48:35.958Z,2.20
2022-10-22T11:50:50.755Z,1.20
2022-10-22T11:53:02.575Z,1.10
2022-10-22T11:55:30.557Z,1.40
2022-10-22T11:57:38.601Z,1.20
2022-10-22T11:59:45.882Z,1.50
2022-10-22T12:01:49.408Z,3.00
2022-10-22T12:03:53.805Z,1.43
2022-10-22T12:06:12.153Z,1.20
2022-10-22T12:08:25.085Z,1.10
2022-10-22T12:10:31.507Z,1.00
2022-10-22T12:12:37.950Z,1.07
2022-10-22T12:14:54.646Z,1.20
2022-10-22T12:16:59.606Z,1.10
2022-10-22T12:19:05.928Z,4.67
2022-10-22T12:21:14.127Z,1.80
2022-10-22T12:23:17.588Z,1.40
2022-10-22T12:25:23.842Z,1.13
2022-10-22T12:27:28.298Z,1.20
2022-10-22T12:29:33.794Z,1.20
2022-10-22T12:31:38.695Z,1.00
2022-10-22T12:33:42.357Z,0.90
2022-10-22T12:35:47.794Z,1.20
2022-10-22T12:37:53.867Z,1.20
2022-10-22T12:39:57.317Z,1.37
2022-10-22T12:42:00.379Z,1.30
2022-10-22T12:44:04.915Z,0.97
2022-10-22T12:46:13.717Z,1.37
2022-10-22T12:48:19.576Z,1.33
2022-10-22T12:50:25.519Z,1.40
2022-10-22T12:52:28.655Z,1.00
2022-10-22T12:54:34.675Z,1.03
2022-10-22T12:56:38.941Z,0.90
2022-10-22T12:58:44.253Z,0.97
2022-10-22T13:00:47.936Z,1.50
2022-10-22T13:02:51.940Z,1.27
2022-10-22T13:05:17.870Z,1.20
2022-10-22T13:07:22.189Z,1.10
2022-10-22T13:09:27.673Z,1.20
2022-10-22T13:11:36.416Z,1.30
2022-10-22T13:13:45.758Z,1.70
2022-10-22T13:15:48.875Z,1.37
2022-10-22T13:17:52.033Z,1.07
2022-10-22T13:20:05.240Z,1.30
2022-10-22T13:22:25.851Z,1.33
2022-10-22T13:24:30.051Z,1.40
2022-10-22T13:26:36.240Z,1.10
2022-10-22T13:28:39.487Z,1.20
2022-10-22T13:30:53.017Z,1.00
2022-10-22T13:32:57.692Z,1.13
2022-10-22T13:35:01.506Z,1.00
2022-10-22T13:37:04.897Z,1.60
2022-10-22T13:39:08.967Z,0.80
2022-10-22T13:41:23.638Z,1.60
2022-10-22T13:43:28.141Z,0.90
2022-10-22T13:45:31.298Z,1.60
2022-10-22T13:47:34.763Z,1.30
2022-10-22T13:49:40.371Z,1.13
2022-10-22T13:51:43.786Z,1.20
2022-10-22T13:53:47.911Z,1.20
2022-10-22T13:55:51.345Z,0.90
2022-10-22T13:57:54.803Z,1.23
2022-10-22T13:59:59.685Z,1.20
2022-10-22T14:02:06.406Z,1.07
2022-10-22T14:04:12.081Z,1.20
2022-10-22T14:06:16.204Z,1.37
2022-10-22T14:08:21.449Z,1.30
2022-10-22T14:10:25.916Z,1.23
2022-10-22T14:12:29.180Z,1.00
2022-10-22T14:14:32.672Z,1.10
2022-10-22T14:16:38.356Z,1.20
2022-10-22T14:18:42.481Z,1.27
2022-10-22T14:20:46.119Z,1.20
2022-10-22T14:22:50.206Z,0.80
2022-10-22T14:24:54.349Z,1.10
2022-10-22T14:26:57.435Z,1.00
2022-10-22T14:29:09.686Z,1.00
2022-10-22T14:31:13.142Z,1.20
2022-10-22T14:33:19.729Z,0.70
2022-10-22T14:35:24.310Z,1.07
2022-10-22T14:37:27.705Z,1.30
2022-10-22T14:39:30.955Z,1.00
2022-10-22T14:41:34.255Z,1.00
2022-10-22T14:43:37.486Z,1.20
2022-10-22T14:45:41.104Z,0.97
2022-10-22T14:47:44.810Z,1.10
2022-10-22T14:49:49.515Z,1.27
2022-10-22T14:51:52.694Z,1.13
2022-10-22T14:53:55.923Z,1.10
2022-10-22T14:56:01.491Z,1.10
2022-10-22T14:58:04.816Z,0.97
2022-10-22T15:00:10.157Z,1.03
2022-10-22T15:02:14.427Z,1.07
2022-10-22T15:04:17.665Z,0.80
2022-10-22T15:06:22.396Z,1.27
2022-10-22T15:08:27.072Z,1.00
2022-10-22T15:10:30.517Z,0.90
2022-10-22T15:12:33.875Z,1.23
2022-10-22T15:14:37.102Z,0.93
2022-10-22T15:16:40.212Z,1.27
2022-10-22T15:18:43.694Z,1.23
2022-10-22T15:20:47.090Z,1.17
2022-10-22T15:22:51.993Z,0.90
2022-10-22T15:24:55.291Z,1.30
2022-10-22T15:26:58.704Z,1.20
2022-10-22T15:29:03.770Z,1.10
2022-10-22T15:31:07.813Z,1.33
2022-10-22T15:33:12.045Z,1.37
2022-10-22T15:35:15.627Z,1.13
2022-10-22T15:37:18.710Z,1.00
2022-10-22T15:39:23.474Z,0.97
2022-10-22T15:41:26.541Z,1.30
2022-10-22T15:43:29.681Z,1.17
2022-10-22T15:45:33.007Z,0.90
2022-10-22T15:47:36.145Z,1.00
2022-10-22T15:49:41.908Z,1.37
2022-10-22T15:51:45.790Z,1.27
2022-10-22T15:53:52.894Z,1.17
2022-10-22T15:55:57.521Z,1.27
2022-10-22T15:58:03.430Z,1.43
2022-10-22T16:00:08.797Z,1.13
2022-10-22T16:02:18.301Z,1.13
2022-10-22T16:04:21.454Z,1.00
2022-10-22T16:06:24.497Z,1.10
2022-10-22T16:08:28.104Z,1.23
2022-10-22T16:10:31.617Z,1.43
2022-10-22T16:12:36.742Z,1.10
2022-10-22T16:14:39.889Z,1.50
2022-10-22T16:16:44.794Z,2.00
2022-10-22T16:18:47.969Z,1.67
2022-10-22T16:20:51.251Z,1.60
2022-10-22T16:22:54.308Z,1.50
2022-10-22T16:24:57.442Z,1.73
2022-10-22T16:27:00.532Z,1.70
2022-10-22T16:29:05.045Z,1.60
2022-10-22T16:31:10.000Z,2.40
2022-10-22T16:33:13.077Z,1.70
2022-10-22T16:35:16.406Z,2.70
2022-10-22T16:37:19.645Z,2.87
2022-10-22T16:39:22.867Z,2.50
2022-10-22T16:41:34.800Z,3.57
2022-10-22T16:43:37.943Z,2.70
2022-10-22T16:45:48.485Z,6.83
2022-10-22T16:47:51.603Z,4.07
2022-10-22T16:49:54.954Z,2.77
2022-10-22T16:51:57.977Z,2.83
2022-10-22T16:54:01.176Z,2.90
2022-10-22T16:56:04.772Z,4.83
2022-10-22T16:58:07.983Z,3.73
2022-10-22T17:00:12.776Z,5.20
2022-10-22T17:02:17.315Z,20.20
2022-10-22T17:04:20.443Z,29.13
2022-10-22T17:06:25.214Z,28.43
2022-10-22T17:08:28.325Z,19.47
2022-10-22T17:10:31.557Z,12.50
2022-10-22T17:12:35.437Z,9.17
2022-10-22T17:14:38.713Z,9.10
2022-10-22T17:16:41.828Z,11.30
2022-10-22T17:18:47.274Z,10.60
2022-10-22T17:20:50.421Z,6.70
2022-10-22T17:22:53.516Z,5.93
2022-10-22T17:25:09.943Z,5.30
2022-10-22T17:27:13.508Z,5.00
2022-10-22T17:29:16.772Z,5.53
2022-10-22T17:31:21.527Z,5.77
2022-10-22T17:33:24.554Z,6.13
2022-10-22T17:35:29.049Z,8.30
2022-10-22T17:37:32.637Z,7.40
2022-10-22T17:39:35.662Z,7.80
2022-10-22T17:41:38.879Z,5.40
2022-10-22T17:43:41.967Z,5.00
2022-10-22T17:45:45.176Z,7.97
2022-10-22T17:47:48.210Z,6.63
2022-10-22T17:49:51.464Z,5.80
2022-10-22T17:51:55.951Z,5.40
2022-10-22T17:53:59.575Z,5.77
2022-10-22T17:56:03.820Z,5.80
2022-10-22T17:58:06.862Z,5.63
2022-10-22T18:00:11.247Z,5.87
2022-10-22T18:02:17.145Z,7.70
2022-10-22T18:04:22.292Z,7.30
2022-10-22T18:06:25.311Z,7.20
2022-10-22T18:08:29.884Z,7.10
2022-10-22T18:10:33.037Z,7.70
2022-10-22T18:12:36.734Z,6.70
2022-10-22T18:14:39.860Z,6.13
2022-10-22T18:16:42.901Z,6.30
2022-10-22T18:18:47.090Z,6.43
2022-10-22T18:20:50.567Z,6.30
2022-10-22T18:22:55.621Z,5.70
2022-10-22T18:24:59.993Z,5.57
2022-10-22T18:27:04.008Z,7.30
2022-10-22T18:29:07.179Z,7.13
2022-10-22T18:31:12.790Z,7.97
2022-10-22T18:33:17.798Z,7.43
2022-10-22T18:35:20.981Z,6.83
2022-10-22T18:37:24.394Z,7.40
2022-10-22T18:39:27.512Z,7.00
2022-10-22T18:41:32.848Z,7.00
2022-10-22T18:43:36.472Z,7.00
2022-10-22T18:45:42.635Z,9.87
2022-10-22T18:47:45.743Z,7.00
2022-10-22T18:49:48.876Z,7.20
2022-10-22T18:51:52.956Z,7.60
2022-10-22T18:54:06.027Z,7.43
2022-10-22T18:56:19.576Z,8.77
2022-10-22T18:58:24.148Z,6.77
2022-10-22T19:00:28.448Z,7.50
2022-10-22T19:02:31.549Z,7.60
2022-10-22T19:04:37.104Z,6.87
2022-10-22T19:06:45.072Z,6.10
2022-10-22T19:08:51.338Z,5.73
2022-10-22T19:10:55.077Z,6.17
2022-10-22T19:12:58.188Z,5.50
2022-10-22T19:15:02.754Z,6.20
2022-10-22T19:17:05.903Z,5.70
2022-10-22T19:19:09.322Z,5.50
2022-10-22T19:21:12.717Z,5.27
2022-10-22T19:23:19.960Z,5.40
2022-10-22T19:25:24.694Z,5.17
2022-10-22T19:27:27.838Z,4.63
2022-10-22T19:29:30.916Z,4.80
2022-10-22T19:31:35.741Z,6.50
2022-10-22T19:33:40.106Z,7.20
2022-10-22T19:35:43.124Z,7.50
2022-10-22T19:37:48.371Z,7.60
2022-10-22T19:39:51.779Z,7.23
2022-10-22T19:41:54.831Z,7.80
2022-10-22T19:43:58.928Z,5.77
2022-10-22T19:46:02.094Z,6.07
2022-10-22T19:48:07.354Z,7.73
2022-10-22T19:50:10.483Z,6.60
2022-10-22T19:52:13.598Z,7.00
2022-10-22T19:54:18.757Z,6.23
2022-10-22T19:56:22.107Z,6.67
2022-10-22T19:58:25.203Z,7.40
2022-10-22T20:00:29.369Z,7.10
2022-10-22T20:02:32.494Z,6.80
2022-10-22T20:04:37.208Z,6.63
2022-10-22T20:06:40.334Z,6.43
2022-10-22T20:08:43.694Z,6.37
2022-10-22T20:10:49.591Z,6.10
2022-10-22T20:12:53.341Z,6.90
2022-10-22T20:14:56.405Z,7.00
2022-10-22T20:16:59.498Z,6.93
2022-10-22T20:19:04.172Z,6.23
2022-10-22T20:21:09.185Z,6.00
2022-10-22T20:23:12.509Z,6.20
2022-10-22T20:25:15.597Z,5.63
2022-10-22T20:27:18.640Z,6.60
2022-10-22T20:29:21.848Z,6.37
2022-10-22T20:31:27.099Z,13.17
2022-10-22T20:33:30.593Z,7.90
2022-10-22T20:35:33.612Z,6.17
2022-10-22T20:37:38.129Z,6.10
2022-10-22T20:39:41.364Z,6.13
2022-10-22T20:41:44.509Z,5.80
2022-10-22T20:43:48.152Z,5.60
2022-10-22T20:45:51.362Z,5.83
2022-10-22T20:48:01.965Z,5.67
2022-10-22T20:50:06.497Z,5.60
2022-10-22T20:52:09.999Z,5.63
2022-10-22T20:54:15.520Z,5.00
2022-10-22T20:56:19.819Z,5.30
2022-10-22T20:58:24.583Z,5.60
2022-10-22T21:00:35.654Z,5.23
2022-10-22T21:02:39.000Z,4.93
2022-10-22T21:04:44.109Z,5.97
2022-10-22T21:06:50.442Z,6.13
2022-10-22T21:08:53.597Z,5.70
2022-10-22T21:10:58.115Z,5.90
2022-10-22T21:13:04.743Z,6.40
2022-10-22T21:15:11.757Z,5.73
2022-10-22T21:17:16.159Z,6.57
2022-10-22T21:19:21.088Z,6.30
2022-10-22T21:21:24.816Z,5.37
2022-10-22T21:23:28.522Z,6.30
2022-10-22T21:25:32.059Z,5.40
2022-10-22T21:27:36.563Z,5.33
2022-10-22T21:29:40.715Z,6.53
2022-10-22T21:31:43.876Z,6.90
2022-10-22T21:33:47.145Z,6.40
2022-10-22T21:35:53.843Z,6.00
2022-10-22T21:37:57.038Z,6.00
2022-10-22T21:40:01.302Z,6.40
2022-10-22T21:42:04.529Z,6.67
2022-10-22T21:44:08.901Z,7.60
2022-10-22T21:46:15.244Z,8.03
2022-10-22T21:48:18.331Z,8.50
2022-10-22T21:50:21.450Z,8.10
2022-10-22T21:52:24.498Z,7.80
2022-10-22T21:54:30.627Z,8.30
2022-10-22T21:56:35.589Z,7.63
2022-10-22T21:58:38.741Z,8.10
2022-10-22T22:00:43.129Z,7.50
2022-10-22T22:02:46.328Z,6.90
2022-10-22T22:04:50.483Z,15.87
2022-10-22T22:06:53.763Z,16.50
2022-10-22T22:08:56.854Z,9.77
2022-10-22T22:11:04.353Z,6.63
2022-10-22T22:13:07.382Z,5.80
2022-10-22T22:15:11.317Z,5.53
2022-10-22T22:17:16.618Z,5.67
2022-10-22T22:19:19.703Z,5.50
2022-10-22T22:21:23.337Z,5.73
2022-10-22T22:23:27.368Z,6.53
2022-10-22T22:25:30.459Z,6.47
2022-10-22T22:27:33.489Z,6.00
2022-10-22T22:29:36.666Z,6.27
2022-10-22T22:31:40.269Z,5.33
2022-10-22T22:33:45.116Z,5.90
2022-10-22T22:35:48.158Z,5.00
2022-10-22T22:37:51.303Z,6.13
2022-10-22T22:39:54.398Z,5.83
2022-10-22T22:41:57.391Z,5.73
2022-10-22T22:44:00.451Z,6.40
2022-10-22T22:46:04.443Z,5.77
2022-10-22T22:48:07.958Z,5.70
2022-10-22T22:50:12.401Z,6.50
2022-10-22T22:52:16.089Z,6.13
2022-10-22T22:54:19.141Z,6.50
2022-10-22T22:56:23.701Z,5.70
2022-10-22T22:58:26.698Z,5.17
2022-10-22T23:00:29.837Z,6.10
2022-10-22T23:02:32.932Z,5.63
2022-10-22T23:04:36.090Z,5.30
2022-10-22T23:06:41.006Z,5.60
2022-10-22T23:08:44.406Z,4.97
2022-10-22T23:10:48.092Z,5.63
2022-10-22T23:12:51.111Z,4.90
2022-10-22T23:14:54.162Z,6.03
2022-10-22T23:16:57.230Z,5.90
2022-10-22T23:19:01.185Z,5.10
2022-10-22T23:21:06.314Z,5.40
2022-10-22T23:23:10.718Z,5.90
2022-10-22T23:25:13.804Z,4.70
2022-10-22T23:27:16.849Z,4.50
2022-10-22T23:29:21.438Z,4.90
2022-10-22T23:31:24.483Z,5.30
2022-10-22T23:33:27.777Z,4.87
2022-10-22T23:35:30.726Z,5.10
2022-10-22T23:37:33.761Z,4.87
2022-10-22T23:39:38.141Z,5.03
2022-10-22T23:41:41.622Z,5.13
2022-10-22T23:43:44.650Z,5.00
2022-10-22T23:45:47.745Z,5.67
2022-10-22T23:47:50.712Z,5.20
2022-10-22T23:49:53.757Z,4.87
2022-10-22T23:51:56.728Z,5.80
2022-10-22T23:54:01.591Z,4.87
2022-10-22T23:56:07.600Z,6.90
2022-10-22T23:58:11.271Z,4.73
